首页
METAR-TAF:

METAR-TAF

机场 :

Caldwell, 新泽西州, 美国

纬度: 40-52-35N, 经度: 074-16-59W, 海拔: 52米

当前天气观测

该预报发布于46分钟前的13:53 UTC
风速4节,风向
温度 28°C
湿度 70%
气压 1011 hPa
能見度: 16.1公里
天空无云

METAR: KCDW 221353Z 08004KT 10SM CLR 28/22 A2985 RMK AO2 SLP112 T02780222

时间: 10:39 (14:39 UTC)


TAF: 丢失

超过4000个机场的气象观测和天气预报(METAR&TAF报告)。

可查询的气象台以黄色和红色小点在地图上表示。

将鼠标移到小点上方,可查看气象台名称。

然后点击查看天气观测和预报。

如需切换地图:点击带黑十字的绿色按钮放大地图;点击带横线的绿色按钮缩小地图;或者点击绿色箭头查看邻近地区的地图。


METAR-TAF: